TimeAKDT,TemperatureF,Dew PointF,Humidity,Sea Level PressureIn,VisibilityMPH,Wind Direction,Wind SpeedMPH,Gust SpeedMPH,PrecipitationIn,Events,Conditions,WindDirDegrees,DateUTC
12:53 AM,23.0,10.0,58,29.47,10.0,Calm,Calm,-,N/A,,Overcast,0,2012-10-14 08:53:00
1:53 AM,21.9,10.0,60,29.47,10.0,Calm,Calm,-,N/A,,Overcast,0,2012-10-14 09:53:00
2:53 AM,23.0,9.0,55,29.45,10.0,ESE,3.5,-,N/A,,Overcast,120,2012-10-14 10:53:00
3:53 AM,23.0,8.1,53,29.43,10.0,Calm,Calm,-,N/A,,Overcast,0,2012-10-14 11:53:00
4:53 AM,23.0,9.0,55,29.40,10.0,SSE,3.5,-,N/A,,Overcast,150,2012-10-14 12:53:00
5:53 AM,23.0,10.0,58,29.38,10.0,East,4.6,-,N/A,,Overcast,100,2012-10-14 13:53:00
6:53 AM,24.1,10.0,55,29.36,10.0,Variable,4.6,-,N/A,,Overcast,0,2012-10-14 14:53:00
7:53 AM,24.1,10.0,55,29.34,10.0,East,4.6,-,N/A,,Unknown,90,2012-10-14 15:53:00
8:53 AM,24.1,10.0,55,29.33,10.0,Variable,3.5,-,N/A,,Overcast,0,2012-10-14 16:53:00
9:53 AM,25.0,10.0,53,29.32,10.0,ESE,5.8,-,N/A,,Overcast,120,2012-10-14 17:53:00
10:53 AM,26.1,10.9,53,29.30,10.0,ESE,5.8,-,N/A,,Overcast,110,2012-10-14 18:53:00
11:53 AM,27.0,12.0,53,29.29,10.0,Variable,4.6,-,N/A,,Overcast,0,2012-10-14 19:53:00
12:53 PM,28.9,12.9,51,29.26,10.0,Variable,4.6,-,N/A,,Overcast,0,2012-10-14 20:53:00
1:53 PM,30.9,14.0,50,29.25,10.0,ESE,8.1,-,N/A,,Overcast,110,2012-10-14 21:53:00
2:53 PM,30.9,14.0,50,29.23,10.0,Variable,4.6,-,N/A,,Overcast,0,2012-10-14 22:53:00
3:53 PM,32.0,15.1,50,29.21,10.0,Calm,Calm,-,N/A,,Overcast,0,2012-10-14 23:53:00
4:53 PM,32.0,15.1,50,29.21,10.0,Calm,Calm,-,N/A,,Overcast,0,2012-10-15 00:53:00
5:53 PM,30.9,16.0,54,29.21,10.0,Calm,Calm,-,N/A,,Overcast,0,2012-10-15 01:53:00
6:53 PM,30.9,16.0,54,29.21,10.0,NE,3.5,-,N/A,,Overcast,50,2012-10-15 02:53:00
7:53 PM,30.0,16.0,56,29.21,10.0,Calm,Calm,-,N/A,,Overcast,0,2012-10-15 03:53:00
8:53 PM,28.0,16.0,61,29.22,10.0,NW,3.5,-,N/A,,Overcast,320,2012-10-15 04:53:00
9:53 PM,27.0,16.0,63,29.22,10.0,Calm,Calm,-,N/A,,Overcast,0,2012-10-15 05:53:00
10:53 PM,26.1,15.1,63,29.23,10.0,Variable,3.5,-,N/A,,Overcast,0,2012-10-15 06:53:00
11:53 PM,25.0,15.1,66,29.24,10.0,West,4.6,-,N/A,,Overcast,280,2012-10-15 07:53:00